Time;durP1;ratioP1;P1;durP2;ratioP2;P2;SDS_P1;SDS_P2;PMS_P1;PMS_P2;Temp;Humidity;BMP_temperature;BMP_pressure;BME280_temperature;BME280_humidity;BME280_pressure;Samples;Min_cycle;Max_cycle;Signal;HPM_P1;HPM_P2
2023/08/23 00:00:06;;;;;;;3.30;2.50;;;;;;;;;;5009348;28;20191;-96
2023/08/23 00:02:36;;;;;;;4.25;3.00;;;;;;;;;;5014924;28;20167;-95
2023/08/23 00:05:17;;;;;;;2.80;2.60;;;;;;;;;;5020660;28;20172;-95
2023/08/23 00:07:59;;;;;;;3.92;3.15;;;;;;;;;;5020922;28;20172;-95
2023/08/23 00:10:55;;;;;;;2.42;2.00;;;;;;;;;;5020663;28;20179;-95
2023/08/23 00:27:06;;;;;;;1.60;1.50;;;;;;;;;;6048090;22;7049234;-96
2023/08/23 00:29:54;;;;;;;1.73;1.63;;;;;;;;;;6315021;22;20162;-96
2023/08/23 00:32:29;;;;;;;1.95;1.50;;;;;;;;;;6314853;22;20154;-96
2023/08/23 00:35:09;;;;;;;1.60;1.50;;;;;;;;;;6314764;22;20171;-96
2023/08/23 00:37:57;;;;;;;2.28;2.08;;;;;;;;;;6314820;22;20171;-96
2023/08/23 00:40:31;;;;;;;1.58;1.48;;;;;;;;;;6314929;22;20140;-94
2023/08/23 00:43:13;;;;;;;1.52;1.42;;;;;;;;;;6314427;22;20154;-95
2023/08/23 00:45:50;;;;;;;2.13;1.52;;;;;;;;;;6314783;22;20148;-96
2023/08/23 00:48:31;;;;;;;;;;;;;;;;;;;;;
2023/08/23 00:51:16;;;;;;;;;;;;;;;;;;;;;
2023/08/23 00:53:47;;;;;;;2.00;1.70;;;;;;;;;;6314793;22;20199;-95
2023/08/23 00:56:16;;;;;;;2.97;2.15;;;;;;;;;;6314515;22;20170;-96
2023/08/23 00:58:48;;;;;;;2.30;2.10;;;;;;;;;;6314579;22;20148;-96
2023/08/23 01:01:18;;;;;;;3.00;2.05;;;;;;;;;;6314780;22;20160;-96
2023/08/23 01:03:46;;;;;;;2.20;1.95;;;;;;;;;;6314748;22;20173;-95
2023/08/23 01:06:31;;;;;;;2.85;2.03;;;;;;;;;;6314467;22;20144;-96
2023/08/23 01:09:08;;;;;;;2.00;1.90;;;;;;;;;;6314501;22;20199;-95
2023/08/23 01:11:52;;;;;;;2.75;2.10;;;;;;;;;;6314359;22;20156;-95
2023/08/23 01:14:33;;;;;;;2.40;2.20;;;;;;;;;;6314121;22;20148;-94
2023/08/23 01:17:02;;;;;;;2.63;2.10;;;;;;;;;;6314412;22;20167;-96
2023/08/23 01:19:45;;;;;;;2.20;1.85;;;;;;;;;;6314426;22;20144;-95
2023/08/23 01:22:26;;;;;;;2.20;2.00;;;;;;;;;;6314160;22;20174;-96
2023/08/23 01:25:01;;;;;;;2.97;2.30;;;;;;;;;;6314335;22;20140;-95
2023/08/23 01:27:38;;;;;;;2.08;1.92;;;;;;;;;;6277203;23;20153;-96
2023/08/23 01:30:27;;;;;;;1.33;1.23;;;;;;;;;;6276470;23;20149;-95
2023/08/23 01:33:07;;;;;;;1.60;1.50;;;;;;;;;;6276636;23;20149;-95
2023/08/23 01:35:43;;;;;;;1.30;1.20;;;;;;;;;;6277041;23;20160;-95
2023/08/23 01:38:23;;;;;;;3.67;1.83;;;;;;;;;;6277066;23;20160;-95
2023/08/23 01:40:55;;;;;;;2.55;1.83;;;;;;;;;;6276925;23;20149;-96
2023/08/23 01:43:42;;;;;;;2.08;1.98;;;;;;;;;;6276510;23;20149;-95
2023/08/23 01:46:12;;;;;;;2.20;2.10;;;;;;;;;;6276949;23;20142;-95
2023/08/23 01:48:42;;;;;;;2.40;2.10;;;;;;;;;;6276672;23;20152;-96
2023/08/23 01:51:17;;;;;;;4.00;2.70;;;;;;;;;;6276287;23;20168;-95
2023/08/23 01:53:50;;;;;;;3.33;3.03;;;;;;;;;;6276188;23;20149;-95
2023/08/23 01:56:24;;;;;;;2.30;2.00;;;;;;;;;;6276344;23;20157;-95
2023/08/23 01:59:01;;;;;;;2.30;2.10;;;;;;;;;;6276292;23;20160;-96
2023/08/23 02:01:32;;;;;;;3.05;2.55;;;;;;;;;;6276160;23;20149;-96
2023/08/23 02:04:01;;;;;;;4.05;2.35;;;;;;;;;;6276134;23;20145;-96
2023/08/23 02:06:31;;;;;;;2.20;2.05;;;;;;;;;;6276281;23;20142;-96
2023/08/23 02:08:59;;;;;;;2.40;1.90;;;;;;;;;;6276251;23;20161;-96
2023/08/23 02:11:28;;;;;;;3.50;2.78;;;;;;;;;;6276139;23;20161;-95
2023/08/23 02:13:56;;;;;;;2.88;2.67;;;;;;;;;;6275824;22;20189;-95
2023/08/23 02:16:24;;;;;;;2.72;2.53;;;;;;;;;;6275956;23;20157;-96
2023/08/23 02:18:51;;;;;;;3.25;2.60;;;;;;;;;;6275996;23;20157;-95
2023/08/23 02:21:19;;;;;;;4.25;3.20;;;;;;;;;;6275796;23;20149;-95
2023/08/23 02:23:47;;;;;;;5.43;3.88;;;;;;;;;;6275743;23;20149;-95
2023/08/23 02:26:15;;;;;;;3.38;3.03;;;;;;;;;;6275859;23;20148;-94
2023/08/23 02:28:45;;;;;;;6.45;3.35;;;;;;;;;;6275874;22;20149;-96
2023/08/23 02:31:13;;;;;;;3.25;2.47;;;;;;;;;;6275644;23;20254;-95
2023/08/23 02:33:41;;;;;;;5.30;4.00;;;;;;;;;;6275678;23;20141;-95
2023/08/23 02:36:09;;;;;;;3.45;2.95;;;;;;;;;;6275850;23;20157;-96
2023/08/23 02:38:35;;;;;;;3.35;2.83;;;;;;;;;;6275466;23;20145;-96
2023/08/23 02:41:04;;;;;;;3.47;2.72;;;;;;;;;;6276136;23;20145;-95
2023/08/23 02:43:32;;;;;;;2.95;2.75;;;;;;;;;;6275491;23;20151;-95
2023/08/23 02:46:01;;;;;;;3.03;2.70;;;;;;;;;;6275612;23;20149;-96
2023/08/23 02:48:30;;;;;;;2.83;2.63;;;;;;;;;;6275641;23;20204;-95
2023/08/23 02:50:59;;;;;;;3.40;3.10;;;;;;;;;;6275556;23;20149;-95
2023/08/23 02:53:27;;;;;;;4.68;3.75;;;;;;;;;;6275422;23;20145;-94
2023/08/23 02:55:55;;;;;;;3.30;3.10;;;;;;;;;;6275468;23;20158;-95
2023/08/23 02:58:22;;;;;;;7.00;4.10;;;;;;;;;;6275507;23;20149;-95
2023/08/23 03:00:51;;;;;;;4.25;3.83;;;;;;;;;;6275301;23;20209;-95
2023/08/23 03:03:20;;;;;;;4.75;4.25;;;;;;;;;;6275459;23;20154;-96
2023/08/23 03:05:55;;;;;;;3.72;3.42;;;;;;;;;;6274422;22;20237;-96
2023/08/23 03:08:23;;;;;;;3.88;3.20;;;;;;;;;;6270722;23;20160;-95
2023/08/23 03:10:51;;;;;;;2.50;2.30;;;;;;;;;;6271194;23;20149;-94
2023/08/23 03:13:18;;;;;;;3.80;3.13;;;;;;;;;;6271167;23;20168;-96
2023/08/23 03:15:53;;;;;;;3.58;3.28;;;;;;;;;;6271179;23;20162;-96
2023/08/23 03:18:22;;;;;;;5.70;3.50;;;;;;;;;;6271605;23;20152;-96
2023/08/23 03:20:50;;;;;;;2.90;2.70;;;;;;;;;;6271487;23;20184;-95
2023/08/23 03:23:19;;;;;;;5.00;3.40;;;;;;;;;;6270988;23;20150;-96
2023/08/23 03:25:47;;;;;;;3.40;3.10;;;;;;;;;;6271247;23;20176;-96
2023/08/23 03:28:15;;;;;;;3.55;3.17;;;;;;;;;;6271430;23;20160;-96
2023/08/23 03:30:43;;;;;;;3.45;3.15;;;;;;;;;;6274215;23;20205;-95
2023/08/23 03:33:11;;;;;;;3.45;3.15;;;;;;;;;;6272806;23;20154;-95
2023/08/23 03:35:40;;;;;;;3.63;3.25;;;;;;;;;;6271306;23;20157;-95
2023/08/23 03:38:08;;;;;;;3.85;3.55;;;;;;;;;;6270712;23;20157;-95
2023/08/23 03:40:39;;;;;;;3.15;2.92;;;;;;;;;;6271045;23;20145;-95
2023/08/23 03:43:06;;;;;;;3.50;3.20;;;;;;;;;;6270716;23;20172;-95
2023/08/23 03:45:35;;;;;;;4.07;3.70;;;;;;;;;;6271273;23;20145;-95
2023/08/23 03:48:05;;;;;;;4.25;3.85;;;;;;;;;;6271577;23;20156;-96
2023/08/23 03:50:35;;;;;;;4.63;4.20;;;;;;;;;;6271243;23;20160;-95
2023/08/23 03:53:04;;;;;;;3.85;3.50;;;;;;;;;;6271223;23;20150;-96
2023/08/23 03:55:33;;;;;;;4.50;4.10;;;;;;;;;;6272003;23;20149;-95
2023/08/23 03:58:02;;;;;;;4.68;4.28;;;;;;;;;;6271987;23;20168;-96
2023/08/23 04:00:29;;;;;;;3.70;3.40;;;;;;;;;;6271752;23;20160;-95
2023/08/23 04:02:57;;;;;;;4.07;3.78;;;;;;;;;;6272543;23;20160;-95
2023/08/23 04:05:25;;;;;;;3.95;3.65;;;;;;;;;;6271887;23;20149;-95
2023/08/23 04:07:53;;;;;;;4.60;4.20;;;;;;;;;;6271159;23;20155;-95
2023/08/23 04:10:22;;;;;;;4.05;3.67;;;;;;;;;;6271298;22;20149;-95
2023/08/23 04:12:50;;;;;;;5.10;3.80;;;;;;;;;;6271245;23;20149;-95
2023/08/23 04:15:18;;;;;;;3.60;3.30;;;;;;;;;;6271494;23;20149;-96
2023/08/23 04:17:46;;;;;;;5.93;3.97;;;;;;;;;;6271399;23;20171;-95
2023/08/23 04:20:14;;;;;;;3.72;2.92;;;;;;;;;;6271493;22;20209;-95
2023/08/23 04:22:42;;;;;;;4.75;4.35;;;;;;;;;;6271187;23;20160;-95
2023/08/23 04:25:11;;;;;;;4.28;3.40;;;;;;;;;;6271411;23;20153;-95
2023/08/23 04:27:40;;;;;;;2.97;2.78;;;;;;;;;;6270890;23;20176;-94
2023/08/23 04:30:10;;;;;;;2.97;2.78;;;;;;;;;;6271050;22;20145;-93
2023/08/23 04:32:37;;;;;;;4.13;3.17;;;;;;;;;;6270533;23;20149;-94
2023/08/23 04:35:06;;;;;;;3.92;3.38;;;;;;;;;;6270554;23;20150;-95
2023/08/23 04:37:42;;;;;;;5.50;3.97;;;;;;;;;;6270841;23;20161;-95
2023/08/23 04:40:11;;;;;;;3.22;3.03;;;;;;;;;;6271293;23;20149;-96
2023/08/23 04:42:41;;;;;;;3.42;3.13;;;;;;;;;;6271647;23;20347;-95
2023/08/23 04:45:11;;;;;;;2.97;2.78;;;;;;;;;;6271670;23;20150;-95
2023/08/23 04:47:39;;;;;;;3.65;3.35;;;;;;;;;;6271892;23;20164;-96
2023/08/23 04:50:09;;;;;;;3.20;2.90;;;;;;;;;;6271790;23;20149;-95
2023/08/23 04:52:36;;;;;;;2.67;2.22;;;;;;;;;;6271279;23;20160;-94
2023/08/23 04:55:05;;;;;;;2.00;1.90;;;;;;;;;;6270800;23;20145;-95
2023/08/23 04:57:33;;;;;;;1.92;1.83;;;;;;;;;;6270649;22;20188;-95
2023/08/23 05:00:02;;;;;;;1.75;1.65;;;;;;;;;;6270655;23;20150;-94
2023/08/23 05:02:30;;;;;;;2.28;2.08;;;;;;;;;;6272064;23;20168;-95
2023/08/23 05:04:58;;;;;;;2.30;2.10;;;;;;;;;;6272605;23;20150;-96
2023/08/23 05:07:26;;;;;;;2.00;1.90;;;;;;;;;;6274529;23;20180;-95
2023/08/23 05:09:54;;;;;;;2.08;1.98;;;;;;;;;;6276467;23;20168;-94
2023/08/23 05:12:22;;;;;;;2.10;2.00;;;;;;;;;;6276321;23;20149;-96
2023/08/23 05:14:50;;;;;;;2.50;2.30;;;;;;;;;;6276613;23;20145;-95
2023/08/23 05:17:19;;;;;;;1.63;1.52;;;;;;;;;;6276456;23;20158;-96
2023/08/23 05:19:47;;;;;;;2.55;2.00;;;;;;;;;;6276632;22;20145;-94
2023/08/23 05:22:15;;;;;;;1.88;1.77;;;;;;;;;;6276394;23;20145;-95
2023/08/23 05:24:43;;;;;;;1.77;1.67;;;;;;;;;;6276430;23;20145;-95
2023/08/23 05:27:11;;;;;;;1.52;1.45;;;;;;;;;;6276330;23;20153;-94
2023/08/23 05:29:39;;;;;;;1.70;1.60;;;;;;;;;;6276429;23;20150;-94
2023/08/23 05:34:55;;;;;;;1.70;1.60;;;;;;;;;;6276642;22;20146;-94
2023/08/23 05:37:24;;;;;;;1.75;1.65;;;;;;;;;;6276518;23;20153;-95
2023/08/23 05:39:52;;;;;;;2.17;2.08;;;;;;;;;;6276546;23;20159;-95
2023/08/23 05:42:24;;;;;;;1.80;1.70;;;;;;;;;;6276626;23;20158;-96
2023/08/23 05:44:54;;;;;;;2.65;2.40;;;;;;;;;;6276783;23;20160;-96
2023/08/23 05:47:25;;;;;;;2.03;1.85;;;;;;;;;;6276699;23;20161;-96
2023/08/23 05:50:00;;;;;;;2.38;1.90;;;;;;;;;;6276908;23;20161;-96
2023/08/23 05:52:36;;;;;;;2.25;2.05;;;;;;;;;;6276810;23;20168;-96
2023/08/23 05:55:07;;;;;;;1.90;1.80;;;;;;;;;;6276810;23;20196;-96
2023/08/23 05:57:41;;;;;;;1.70;1.63;;;;;;;;;;6276804;23;20169;-96
2023/08/23 06:00:17;;;;;;;1.95;1.75;;;;;;;;;;6277000;23;20150;-95
2023/08/23 06:02:53;;;;;;;2.42;2.30;;;;;;;;;;6276807;23;20168;-96
2023/08/23 06:05:33;;;;;;;2.92;2.63;;;;;;;;;;6277077;23;20175;-95
2023/08/23 06:08:04;;;;;;;2.38;2.28;;;;;;;;;;6277051;22;20168;-96
2023/08/23 06:10:38;;;;;;;2.65;2.03;;;;;;;;;;6276868;23;20146;-96
2023/08/23 06:13:19;;;;;;;2.05;1.95;;;;;;;;;;6276599;23;20146;-96
2023/08/23 06:15:57;;;;;;;2.10;2.00;;;;;;;;;;6276862;23;20168;-96
2023/08/23 06:18:34;;;;;;;1.55;1.45;;;;;;;;;;6276844;23;20187;-96
2023/08/23 06:24:08;;;;;;;2.65;2.40;;;;;;;;;;6276405;23;20150;-96
2023/08/23 06:26:43;;;;;;;2.20;2.03;;;;;;;;;;6275670;23;20177;-96
2023/08/23 13:47:25;;;;;;;2.17;2.00;;;;;;;;;;6258594;22;20144;-96
2023/08/23 14:03:42;;;;;;;2.70;2.45;;;;;;;;;;6297371;22;20140;-96
2023/08/23 14:07:08;;;;;;;2.80;2.60;;;;;;;;;;6282220;22;20163;-96
2023/08/23 14:23:33;;;;;;;2.75;2.53;;;;;;;;;;6303950;22;20137;-94
2023/08/23 14:27:05;;;;;;;2.20;2.08;;;;;;;;;;6307467;22;20204;-95
2023/08/23 22:18:20;;;;;;;1.50;1.40;;;;;;;;;;6159348;23;20158;-96
2023/08/23 22:35:41;;;;;;;1.60;1.50;;;;;;;;;;6274379;22;20169;-96
2023/08/23 22:58:28;;;;;;;1.52;1.42;;;;;;;;;;6276036;23;20189;-96
2023/08/23 23:01:09;;;;;;;1.33;1.33;;;;;;;;;;6276666;23;20145;-96
2023/08/23 23:03:40;;;;;;;1.92;1.60;;;;;;;;;;6227263;23;20173;-95
2023/08/23 23:06:17;;;;;;;2.15;1.40;;;;;;;;;;6251435;23;20255;-96
2023/08/23 23:09:05;;;;;;;2.65;1.52;;;;;;;;;;6276405;23;20145;-96
2023/08/23 23:11:44;;;;;;;1.50;1.40;;;;;;;;;;6250445;23;20153;-95
2023/08/23 23:14:27;;;;;;;1.40;1.30;;;;;;;;;;6276077;22;20141;-96
2023/08/23 23:16:59;;;;;;;2.03;1.63;;;;;;;;;;6276488;23;20150;-96
2023/08/23 23:19:37;;;;;;;1.50;1.40;;;;;;;;;;6276225;23;20164;-96
2023/08/23 23:22:14;;;;;;;1.45;1.38;;;;;;;;;;6250338;23;20149;-96
2023/08/23 23:25:04;;;;;;;2.80;2.22;;;;;;;;;;6276115;22;20147;-96
2023/08/23 23:27:43;;;;;;;2.28;1.40;;;;;;;;;;6251568;23;20201;-96
2023/08/23 23:30:15;;;;;;;2.55;1.63;;;;;;;;;;6250631;23;20149;-95
2023/08/23 23:32:52;;;;;;;1.88;1.70;;;;;;;;;;6275924;23;20147;-96
2023/08/23 23:35:26;;;;;;;2.03;1.42;;;;;;;;;;6276208;23;20151;-96
2023/08/23 23:38:01;;;;;;;1.55;1.45;;;;;;;;;;6276102;23;20145;-96
2023/08/23 23:40:44;;;;;;;1.60;1.50;;;;;;;;;;6276101;23;20153;-96
2023/08/23 23:43:22;;;;;;;1.63;1.52;;;;;;;;;;6250181;22;20181;-96
2023/08/23 23:45:56;;;;;;;1.50;1.40;;;;;;;;;;6275970;23;20160;-96
2023/08/23 23:48:28;;;;;;;1.65;1.23;;;;;;;;;;6275876;23;20145;-95
2023/08/23 23:51:04;;;;;;;1.65;1.55;;;;;;;;;;6275708;23;20156;-96
2023/08/23 23:53:39;;;;;;;1.58;1.48;;;;;;;;;;6275788;22;20163;-96
2023/08/23 23:56:17;;;;;;;1.60;1.50;;;;;;;;;;6275868;23;20145;-96
2023/08/23 23:58:50;;;;;;;1.80;1.70;;;;;;;;;;6275843;23;20152;-95
